createdAt,value
2023-11-08T07:52:35.976Z,98941.66
2023-11-08T07:55:03.742Z,98947.09
2023-11-08T07:57:31.226Z,98946.84
2023-11-08T07:59:58.686Z,98940.38
2023-11-08T08:02:26.092Z,98946.25
2023-11-08T08:04:55.200Z,98939.38
2023-11-08T08:07:22.705Z,98945.66
2023-11-08T08:09:50.159Z,98945.81
2023-11-08T08:12:17.589Z,98949.44
2023-11-08T08:14:45.363Z,98950.44
2023-11-08T08:17:14.053Z,98947.06
2023-11-08T08:19:42.604Z,98949.50
2023-11-08T08:22:10.150Z,98951.34
2023-11-08T08:24:37.713Z,98952.28
2023-11-08T08:27:05.575Z,98959.22
2023-11-08T08:29:33.446Z,98955.31
2023-11-08T08:32:01.011Z,98953.84
2023-11-08T08:34:31.678Z,98951.34
2023-11-08T08:37:00.162Z,98952.47
2023-11-08T08:39:29.493Z,98948.66
2023-11-08T08:41:58.427Z,98949.19
2023-11-08T08:44:26.410Z,98952.53
2023-11-08T08:46:53.842Z,98957.53
2023-11-08T08:49:23.028Z,98946.03
2023-11-08T08:51:51.407Z,98947.78
2023-11-08T08:54:22.800Z,98946.72
2023-11-08T08:56:51.250Z,98951.47
2023-11-08T08:59:18.692Z,98956.84
2023-11-08T09:01:46.350Z,98956.91
2023-11-08T09:04:14.450Z,98952.81
2023-11-08T09:06:42.601Z,98957.88
2023-11-08T09:09:13.623Z,98950.78
2023-11-08T09:11:41.988Z,98959.41
2023-11-08T09:14:10.522Z,98957.28
2023-11-08T09:16:39.783Z,98948.19
2023-11-08T09:19:10.182Z,98945.19
2023-11-08T09:21:39.255Z,98957.44
2023-11-08T09:24:08.305Z,98959.25
2023-11-08T09:26:41.579Z,98931.00
2023-11-08T09:29:09.525Z,98954.25
2023-11-08T09:31:39.969Z,98950.84
2023-11-08T09:34:08.736Z,98952.56
2023-11-08T09:36:40.434Z,98950.56
2023-11-08T09:39:10.961Z,98953.03
2023-11-08T09:41:39.622Z,98949.59
2023-11-08T09:44:09.455Z,98946.81
2023-11-08T09:46:39.444Z,98942.25
2023-11-08T09:49:07.618Z,98941.44
2023-11-08T09:51:36.078Z,98936.50
2023-11-08T09:54:04.775Z,98936.75
2023-11-08T09:56:35.349Z,98937.22
2023-11-08T09:59:03.670Z,98938.31
2023-11-08T10:01:38.119Z,98945.78
2023-11-08T10:04:06.288Z,98933.78
2023-11-08T10:06:36.205Z,98936.28
2023-11-08T10:09:07.360Z,98939.59
2023-11-08T10:11:37.248Z,98929.13
2023-11-08T10:14:04.750Z,98937.78
2023-11-08T10:16:55.266Z,98930.56
2023-11-08T10:19:49.130Z,98929.53
2023-11-08T10:22:24.042Z,98920.47
2023-11-08T10:25:04.438Z,98921.50
2023-11-08T10:27:35.445Z,98919.72
2023-11-08T10:30:22.352Z,98921.78
2023-11-08T10:32:50.037Z,98912.69
2023-11-08T10:35:22.860Z,98905.50
2023-11-08T10:37:51.608Z,98901.84
2023-11-08T10:40:22.434Z,98892.38
2023-11-08T10:42:56.511Z,98886.59
2023-11-08T10:45:25.010Z,98874.81
2023-11-08T10:47:52.871Z,98880.19
2023-11-08T10:50:21.943Z,98883.81
2023-11-08T10:52:49.878Z,98870.31
2023-11-08T10:55:17.669Z,98877.25
2023-11-08T10:58:02.758Z,98871.78
2023-11-08T11:00:32.556Z,98870.41
2023-11-08T11:03:13.156Z,98872.66
2023-11-08T11:05:45.119Z,98863.03
2023-11-08T11:08:20.855Z,98858.00
2023-11-08T11:10:49.327Z,98853.00
2023-11-08T11:13:51.409Z,98850.22
2023-11-08T11:16:34.352Z,98836.56
2023-11-08T11:19:13.564Z,98831.47
2023-11-08T11:21:54.622Z,98825.56
2023-11-08T11:24:34.313Z,98815.22
2023-11-08T11:27:05.076Z,98814.03
2023-11-08T11:29:33.975Z,98821.97
2023-11-08T11:32:05.738Z,98817.63
2023-11-08T11:34:38.246Z,98807.28
2023-11-08T11:37:17.518Z,98794.47
2023-11-08T11:40:09.912Z,98796.28
2023-11-08T11:42:37.722Z,98785.47
2023-11-08T11:45:06.892Z,98792.19
2023-11-08T11:47:38.125Z,98780.69
2023-11-08T11:50:10.934Z,98778.97
2023-11-08T11:52:40.687Z,98774.25
2023-11-08T11:55:11.237Z,98775.75
2023-11-08T11:57:39.387Z,98776.66
2023-11-08T12:00:12.396Z,98768.09
2023-11-08T12:02:40.418Z,98770.88
2023-11-08T12:05:08.819Z,98763.28
2023-11-08T12:07:39.017Z,98761.94
2023-11-08T12:10:13.279Z,98755.97
2023-11-08T12:12:45.641Z,98746.44
2023-11-08T12:15:23.883Z,98734.88
2023-11-08T12:17:55.237Z,98738.84
2023-11-08T12:20:25.787Z,98733.66
2023-11-08T12:22:54.488Z,98725.63
2023-11-08T12:25:22.811Z,98728.31
2023-11-08T12:27:58.187Z,98725.94
2023-11-08T12:30:27.738Z,98728.31
2023-11-08T12:32:58.594Z,98719.94
2023-11-08T12:35:27.313Z,98718.06
2023-11-08T12:38:00.543Z,98713.38
2023-11-08T12:40:29.099Z,98710.97
2023-11-08T12:43:55.891Z,98706.59
2023-11-08T12:46:35.313Z,98705.31
2023-11-08T12:48:38.575Z,98700.56
2023-11-08T12:51:11.939Z,98696.63
2023-11-08T12:53:46.968Z,98691.09
2023-11-08T12:56:14.446Z,98681.22
2023-11-08T12:58:42.878Z,98674.06
2023-11-08T13:01:20.874Z,98675.25
2023-11-08T13:03:48.693Z,98666.91
2023-11-08T13:06:16.209Z,98671.22
2023-11-08T13:08:54.941Z,98662.91
2023-11-08T13:11:22.508Z,98656.53
2023-11-08T13:13:50.057Z,98654.53
2023-11-08T13:16:17.538Z,98655.31
2023-11-08T13:18:45.510Z,98656.09
2023-11-08T13:21:13.872Z,98652.81
2023-11-08T13:24:01.709Z,98646.47
2023-11-08T13:26:28.857Z,98645.69
2023-11-08T13:28:57.243Z,98641.72
2023-11-08T13:31:24.775Z,98632.97
2023-11-08T13:33:52.381Z,98641.19
2023-11-08T13:36:27.082Z,98628.97
2023-11-08T13:38:55.689Z,98631.94
2023-11-08T13:41:23.495Z,98627.66
2023-11-08T13:43:51.063Z,98622.50
2023-11-08T13:46:18.613Z,98623.97
2023-11-08T13:48:46.136Z,98624.34
2023-11-08T13:51:13.706Z,98621.50
2023-11-08T13:53:41.204Z,98621.22
2023-11-08T13:56:08.680Z,98616.34
2023-11-08T13:58:37.496Z,98609.97
2023-11-08T14:01:11.306Z,98615.19
2023-11-08T14:03:40.111Z,98607.19
2023-11-08T14:06:09.521Z,98609.06
2023-11-08T14:08:38.877Z,98613.41
2023-11-08T14:11:06.894Z,98612.69
2023-11-08T14:13:34.894Z,98606.25
2023-11-08T14:16:02.597Z,98612.59
2023-11-08T14:18:30.119Z,98610.31
2023-11-08T14:20:57.940Z,98606.69
2023-11-08T14:23:25.546Z,98607.69
2023-11-08T14:25:53.037Z,98595.16
2023-11-08T14:28:20.832Z,98596.31
2023-11-08T14:30:48.704Z,98579.94
2023-11-08T14:33:18.146Z,98578.50
2023-11-08T14:35:45.898Z,98579.50
2023-11-08T14:38:14.045Z,98571.31
2023-11-08T14:40:41.861Z,98567.63
2023-11-08T14:43:11.097Z,98571.19
2023-11-08T14:45:38.794Z,98571.59
2023-11-08T14:48:07.123Z,98570.31
2023-11-08T14:50:34.987Z,98571.13
2023-11-08T14:53:03.679Z,98574.28
2023-11-08T14:55:31.275Z,98572.88
2023-11-08T14:57:58.807Z,98567.06
2023-11-08T15:00:27.184Z,98567.00
2023-11-08T15:02:57.430Z,98569.38
2023-11-08T15:05:25.052Z,98567.69
2023-11-08T15:09:47.550Z,98561.75
2023-11-08T15:10:40.996Z,98571.34
2023-11-08T15:13:08.567Z,98562.97
2023-11-08T15:15:36.101Z,98564.56
2023-11-08T15:18:03.720Z,98566.19
2023-11-08T15:20:31.199Z,98562.19
2023-11-08T15:22:58.986Z,98561.06
2023-11-08T15:25:26.634Z,98553.59
2023-11-08T15:27:54.349Z,98548.72
2023-11-08T15:30:21.927Z,98552.69
2023-11-08T15:32:49.380Z,98543.19
2023-11-08T15:35:16.994Z,98548.69
2023-11-08T15:37:44.515Z,98548.69
2023-11-08T15:40:14.222Z,98556.16
2023-11-08T15:42:41.828Z,98545.91
2023-11-08T15:45:10.729Z,98543.13
2023-11-08T15:47:38.276Z,98538.22
2023-11-08T15:50:06.591Z,98533.84
2023-11-08T15:52:34.205Z,98529.81
2023-11-08T15:55:01.885Z,98525.47
2023-11-08T15:57:29.426Z,98519.13
2023-11-08T15:59:57.585Z,98508.94
2023-11-08T16:02:25.113Z,98504.84
2023-11-08T16:04:52.704Z,98497.44
2023-11-08T16:07:20.290Z,98503.81
2023-11-08T16:09:47.804Z,98505.28
2023-11-08T16:12:15.296Z,98498.53
2023-11-08T16:14:43.172Z,98490.31
2023-11-08T16:17:10.611Z,98487.78
2023-11-08T16:19:38.162Z,98487.25
2023-11-08T16:22:05.656Z,98498.41
2023-11-08T16:24:33.177Z,98481.72
2023-11-08T16:27:00.798Z,98489.16
2023-11-08T16:29:50.881Z,98495.34
2023-11-08T16:32:35.071Z,98490.69
2023-11-08T16:35:03.236Z,98491.72
2023-11-08T16:37:31.113Z,98495.22
2023-11-08T16:39:58.584Z,98488.13
2023-11-08T16:42:26.964Z,98482.44
2023-11-08T16:44:54.412Z,98471.03
2023-11-08T16:47:23.205Z,98469.22
2023-11-08T16:49:52.032Z,98478.25
2023-11-08T16:52:20.492Z,98470.69
2023-11-08T16:54:47.967Z,98474.16
2023-11-08T16:57:15.499Z,98466.94
2023-11-08T16:59:42.968Z,98467.59
2023-11-08T17:02:10.431Z,98465.91
2023-11-08T17:04:41.558Z,98469.63
2023-11-08T17:07:09.231Z,98473.38
2023-11-08T17:09:38.727Z,98474.59
2023-11-08T17:12:07.696Z,98466.16
2023-11-08T17:14:36.080Z,98468.75
2023-11-08T17:17:03.598Z,98457.97
2023-11-08T17:19:31.111Z,98459.22
2023-11-08T17:21:58.934Z,98462.50
2023-11-08T17:24:27.025Z,98461.78
2023-11-08T17:26:54.593Z,98462.44
2023-11-08T17:29:22.073Z,98463.22
2023-11-08T17:31:52.181Z,98471.19
2023-11-08T17:34:20.066Z,98458.97
2023-11-08T17:36:48.760Z,98457.34
2023-11-08T17:39:16.388Z,98456.69
2023-11-08T17:41:43.830Z,98464.19
2023-11-08T17:44:11.860Z,98457.94
2023-11-08T17:46:39.357Z,98468.25
2023-11-08T17:49:06.959Z,98467.38
2023-11-08T17:51:36.230Z,98457.09
2023-11-08T17:54:04.521Z,98467.09
2023-11-08T17:56:31.980Z,98460.63
2023-11-08T17:58:59.540Z,98455.00
2023-11-08T18:01:27.139Z,98469.41
2023-11-08T18:03:54.880Z,98455.69
2023-11-08T18:06:22.358Z,98453.22
2023-11-08T18:08:49.806Z,98451.88
2023-11-08T18:11:17.358Z,98451.88
2023-11-08T18:13:48.909Z,98451.94
2023-11-08T18:16:16.846Z,98447.09
2023-11-08T18:18:45.731Z,98445.44
2023-11-08T18:21:14.229Z,98448.09
2023-11-08T18:23:42.846Z,98445.56
2023-11-08T18:26:10.483Z,98453.16
2023-11-08T18:28:38.000Z,98446.25
2023-11-08T18:31:05.640Z,98446.59
2023-11-08T18:33:33.118Z,98438.00
2023-11-08T18:36:00.565Z,98443.56
2023-11-08T18:38:29.999Z,98434.72
2023-11-08T18:40:58.909Z,98443.00
2023-11-08T18:43:27.424Z,98438.22
2023-11-08T18:45:56.387Z,98443.22
2023-11-08T18:48:28.472Z,98439.63
2023-11-08T18:50:56.194Z,98439.53
2023-11-08T18:53:25.151Z,98424.75
2023-11-08T18:55:52.641Z,98424.75
2023-11-08T18:58:24.266Z,98419.78
2023-11-08T19:00:54.724Z,98412.28
2023-11-08T19:03:22.249Z,98394.47
2023-11-08T19:05:50.431Z,98400.31
2023-11-08T19:08:18.172Z,98394.66
2023-11-08T19:10:45.848Z,98387.69
2023-11-08T19:13:13.902Z,98392.81
2023-11-08T19:15:41.563Z,98393.94
2023-11-08T19:18:09.457Z,98385.59
2023-11-08T19:20:37.090Z,98379.69
2023-11-08T19:23:12.281Z,98383.69
2023-11-08T19:25:47.999Z,98372.38
2023-11-08T19:28:15.462Z,98374.59
2023-11-08T19:30:43.897Z,98369.75
2023-11-08T19:33:11.459Z,98371.34
2023-11-08T19:35:43.095Z,98375.63
2023-11-08T19:38:10.758Z,98371.06
2023-11-08T19:40:38.407Z,98369.25
2023-11-08T19:43:06.582Z,98367.25
2023-11-08T19:45:36.888Z,98361.56
2023-11-08T19:48:04.865Z,98370.50
2023-11-08T19:50:32.752Z,98369.81
2023-11-08T19:53:00.521Z,98357.22
2023-11-08T19:55:27.995Z,98352.16
2023-11-08T19:57:55.794Z,98355.03
2023-11-08T20:00:23.522Z,98352.72
2023-11-08T20:02:52.785Z,98350.69
2023-11-08T20:05:20.545Z,98337.44
2023-11-08T20:07:49.885Z,98333.56
2023-11-08T20:10:18.561Z,98328.72
2023-11-08T20:12:49.074Z,98330.19
2023-11-08T20:15:17.272Z,98327.78
2023-11-08T20:17:45.088Z,98335.59
2023-11-08T20:20:14.260Z,98332.28
2023-11-08T20:22:42.209Z,98334.66
2023-11-08T20:25:10.806Z,98331.44
2023-11-08T20:27:39.284Z,98326.22
2023-11-08T20:30:08.631Z,98316.22
2023-11-08T20:32:40.669Z,98309.81
2023-11-08T20:35:09.744Z,98302.38
2023-11-08T20:37:38.002Z,98313.84
2023-11-08T20:40:10.296Z,98307.59
2023-11-08T20:42:38.278Z,98304.03
2023-11-08T20:45:07.240Z,98310.41
2023-11-08T20:47:34.960Z,98304.50
2023-11-08T20:50:03.573Z,98297.19
2023-11-08T20:52:31.460Z,98306.72
2023-11-08T20:55:00.486Z,98306.25
